sim
Sign-in with your pilot id or email,
or register
Callsign
Passwort

Schedule Details

Flight Number: EWG9655
Departure: Thessaloniki International Airport (LGTS) at 09:50
Arrival: Dusseldorf International Airport (EDDL) at 12:40
Route: Eurowings Passenger Schedule. Enter filed route here before submitting Pirep.

Weather Information
Getting current METAR information for LGTS 211120Z 33019KT CAVOK 16/M01 Q1023 NOSIG
Getting current METAR information for EDDL 211120Z 23008KT CAVOK 12/06 Q1027 NOSIG

Schedule Frequency

Route Map